TIST/STT METAR and TAF weather

Enter ICAO airport designator
Station Type Date Time Source
TIST METAR 2020/05/29 18:53 UTC NOAA

TIST 291853Z 14011KT 10SM CLR 30/23 A3000 RMK AO2 SLP158 T03000233 PNO


Station Type Date Time Source
TIST Decoded METAR 2020/05/29 18:53 UTC NOAA

Charlotte Amalie St. Thomas, Cyril E. King Airport, Virgin Islands (TIST) 18-20N 064-59W
May 29, 2020 - 02:53 PM EDT / 2020.05.29 1853 UTC
Wind: from the SE (140 degrees) at 13 MPH (11 KT):0
Visibility: 10 mile(s):0
Sky conditions: clear
Temperature: 86.0 F (30.0 C)
Heat index: 93.7 F (34.3 C):1
Dew Point: 73.9 F (23.3 C)
Relative Humidity: 67%
Pressure (altimeter): 30 in. Hg (1015 hPa)
ob: TIST 291853Z 14011KT 10SM CLR 30/23 A3000 RMK AO2 SLP158 T03000233 PNO
cycle: 19

Station Type Date Time Source
TIST TAF 2020/05/29 18:48 UTC NOAA

TAF TIST 291740Z 2918/3018 13012KT P6SM FEW025 SCT035
FM300600 11011KT P6SM FEW025 FEW035

Example: see airport list